Time;durP1;ratioP1;P1;durP2;ratioP2;P2;SDS_P1;SDS_P2;PMS_P1;PMS_P2;Temp;Humidity;BMP_temperature;BMP_pressure;BME280_temperature;BME280_humidity;BME280_pressure;Samples;Min_cycle;Max_cycle;Signal;HPM_P1;HPM_P2
2023/01/07 00:01:03;;;;;;;6.25;4.13;;;;;;;8.27;55.11;100626.13;5047799;28;20040;-65
2023/01/07 00:03:29;;;;;;;5.22;4.03;;;;;;;8.18;55.97;100638.25;5057062;28;20052;-66
2023/01/07 00:06:02;;;;;;;5.25;3.85;;;;;;;8.28;55.65;100635.72;5058014;28;20102;-65
2023/01/07 00:08:29;;;;;;;8.10;4.23;;;;;;;8.27;55.72;100640.16;5058322;28;20094;-66
2023/01/07 00:10:55;;;;;;;7.57;4.78;;;;;;;8.39;55.51;100646.28;5058787;28;20512;-65
2023/01/07 00:13:20;;;;;;;7.10;4.75;;;;;;;8.37;55.82;100648.22;5059066;28;20044;-65
2023/01/07 00:15:45;;;;;;;7.43;4.45;;;;;;;7.91;56.88;100657.16;5057768;28;20052;-66
2023/01/07 00:18:11;;;;;;;6.15;4.47;;;;;;;7.40;57.14;100666.53;5058653;28;20032;-65
2023/01/07 00:20:37;;;;;;;7.85;5.32;;;;;;;7.00;59.62;100664.31;5058835;28;20063;-65
2023/01/07 00:23:03;;;;;;;8.10;4.82;;;;;;;7.19;59.20;100666.38;5057984;28;20045;-66
2023/01/07 00:25:28;;;;;;;9.43;5.63;;;;;;;6.60;62.48;100666.47;5059043;28;20250;-65
2023/01/07 00:27:54;;;;;;;8.98;5.78;;;;;;;6.99;61.51;100668.72;5058595;28;20033;-65
2023/01/07 00:30:19;;;;;;;7.60;5.50;;;;;;;6.89;61.77;100673.03;5058457;28;20032;-65
2023/01/07 00:33:04;;;;;;;21.42;8.82;;;;;;;7.21;60.93;100675.00;5058528;28;20226;-65
2023/01/07 00:35:35;;;;;;;26.73;11.90;;;;;;;7.54;59.96;100672.41;5056149;28;20041;-65
2023/01/07 00:38:02;;;;;;;21.58;9.63;;;;;;;7.75;59.32;100669.03;5057687;28;20239;-65
2023/01/07 00:40:30;;;;;;;11.30;5.50;;;;;;;7.86;59.13;100661.13;5058450;28;20045;-65
2023/01/07 00:43:05;;;;;;;177.48;72.40;;;;;;;7.97;58.22;100675.13;5058584;28;20230;-65
2023/01/07 00:45:34;;;;;;;13.73;7.68;;;;;;;8.19;57.68;100671.59;5057786;28;20052;-66
2023/01/07 00:48:01;;;;;;;8.23;4.55;;;;;;;8.24;56.46;100679.97;5058647;28;20067;-65
2023/01/07 00:50:32;;;;;;;8.77;5.75;;;;;;;7.92;56.83;100669.38;5058606;28;20319;-64
2023/01/07 00:52:58;;;;;;;7.25;4.72;;;;;;;7.30;58.40;100679.59;5057742;28;20082;-64
2023/01/07 00:55:24;;;;;;;12.27;5.60;;;;;;;7.16;60.18;100683.25;5058484;28;20037;-65
2023/01/07 00:57:50;;;;;;;10.77;6.35;;;;;;;7.13;59.93;100688.75;5057925;28;20047;-66
2023/01/07 01:00:17;;;;;;;12.00;7.32;;;;;;;7.09;59.83;100684.66;5057993;28;20043;-65
2023/01/07 01:02:44;;;;;;;17.77;9.48;;;;;;;7.49;59.71;100686.91;5057330;28;20204;-65
2023/01/07 01:05:10;;;;;;;23.65;12.15;;;;;;;7.73;59.09;100678.88;5058075;28;20045;-65
2023/01/07 01:07:36;;;;;;;19.48;11.05;;;;;;;7.98;58.42;100678.59;5057669;28;20044;-66
2023/01/07 01:10:03;;;;;;;23.17;12.70;;;;;;;8.15;57.82;100675.44;5057493;28;20060;-66
2023/01/07 01:12:29;;;;;;;16.20;10.32;;;;;;;8.31;57.07;100680.31;5057645;28;20082;-66
2023/01/07 01:14:54;;;;;;;16.20;9.43;;;;;;;8.24;56.99;100673.84;5057671;28;20032;-65
2023/01/07 01:17:21;;;;;;;22.17;10.35;;;;;;;8.04;57.01;100680.75;5039269;28;20044;-66
2023/01/07 01:19:46;;;;;;;16.67;9.45;;;;;;;7.84;57.65;100684.13;5057448;28;20404;-65
2023/01/07 01:22:12;;;;;;;20.55;12.40;;;;;;;7.85;57.86;100689.28;5057224;28;20045;-65
2023/01/07 01:24:37;;;;;;;30.58;15.35;;;;;;;8.04;57.66;100677.28;5057147;28;20032;-65
2023/01/07 01:27:03;;;;;;;28.70;15.15;;;;;;;7.94;57.65;100653.44;5056783;28;20306;-65
2023/01/07 01:29:28;;;;;;;38.20;18.83;;;;;;;8.01;57.71;100673.06;5057196;28;20043;-64
2023/01/07 01:31:54;;;;;;;37.97;17.35;;;;;;;8.10;57.23;100672.34;5056494;28;20055;-66
2023/01/07 01:34:19;;;;;;;31.38;15.65;;;;;;;8.07;57.13;100666.47;5055901;28;20378;-65
2023/01/07 01:36:45;;;;;;;29.75;14.93;;;;;;;8.20;57.00;100664.53;5056797;28;20204;-66
2023/01/07 01:39:10;;;;;;;22.85;13.20;;;;;;;8.22;56.61;100662.59;5056690;28;20461;-66
2023/01/07 01:41:36;;;;;;;25.02;13.25;;;;;;;8.30;56.89;100662.81;5055932;28;20047;-65
2023/01/07 01:44:22;;;;;;;25.00;13.85;;;;;;;8.36;56.07;100661.53;5056676;28;20304;-66
2023/01/07 01:46:47;;;;;;;94.75;36.78;;;;;;;8.22;56.65;100673.16;5015807;28;20336;-64
2023/01/07 01:49:33;;;;;;;47.88;23.55;;;;;;;8.16;57.23;100660.44;5016853;28;20025;-65
2023/01/07 01:52:08;;;;;;;22.40;11.60;;;;;;;8.23;57.13;100664.28;5016529;28;20117;-65
2023/01/07 01:54:33;;;;;;;44.90;19.15;;;;;;;8.22;57.32;100665.22;5016803;28;20065;-64
2023/01/07 01:57:03;;;;;;;41.30;17.20;;;;;;;8.17;57.23;100665.59;5017359;28;20335;-65
2023/01/07 01:59:33;;;;;;;38.85;17.42;;;;;;;8.13;57.42;100656.25;5016331;28;20045;-65
2023/01/07 02:01:59;;;;;;;32.67;14.80;;;;;;;8.18;57.68;100661.16;5016683;28;20341;-65
2023/01/07 02:04:26;;;;;;;24.95;11.50;;;;;;;8.19;57.36;100662.84;5016252;28;20041;-66
2023/01/07 02:06:55;;;;;;;11.57;7.03;;;;;;;8.19;57.19;100661.03;5015600;28;20200;-64
2023/01/07 02:09:21;;;;;;;13.55;7.50;;;;;;;8.14;57.40;100660.56;5015967;28;20278;-65
2023/01/07 02:11:58;;;;;;;13.82;7.25;;;;;;;8.16;57.19;100666.56;5013259;28;20046;-65
2023/01/07 02:14:49;;;;;;;24.17;11.52;;;;;;;7.72;57.79;100654.31;5013378;28;20041;-65
2023/01/07 02:17:54;;;;;;;16.45;9.23;;;;;;;7.36;59.19;100661.50;5012197;28;20056;-64
2023/01/07 02:20:42;;;;;;;20.30;8.82;;;;;;;7.24;60.13;100665.06;5010989;28;20100;-65
2023/01/07 02:23:44;;;;;;;61.38;20.23;;;;;;;7.33;60.50;100677.56;5014264;28;20362;-66
2023/01/07 02:26:10;;;;;;;13.45;6.75;;;;;;;7.60;59.06;100676.38;5015193;28;20042;-66
2023/01/07 02:28:54;;;;;;;21.13;8.63;;;;;;;7.54;58.46;100674.22;5016745;28;20064;-65
2023/01/07 02:32:04;;;;;;;49.65;16.63;;;;;;;7.43;58.99;100679.47;5015403;28;20038;-65
2023/01/07 02:34:57;;;;;;;11.68;6.20;;;;;;;7.63;58.01;100682.22;4991296;28;20057;-65
2023/01/07 02:37:51;;;;;;;12.02;6.60;;;;;;;7.63;56.87;100686.66;5013284;28;20041;-66
2023/01/07 02:40:37;;;;;;;16.10;7.43;;;;;;;7.53;57.37;100685.72;5015397;28;21482;-65
2023/01/07 02:43:08;;;;;;;10.02;5.45;;;;;;;7.40;57.16;100684.97;5015971;28;20256;-64
2023/01/07 02:46:00;;;;;;;10.35;6.32;;;;;;;7.38;57.80;100684.25;5041101;28;20258;-65
2023/01/07 02:48:26;;;;;;;16.08;7.75;;;;;;;7.51;57.43;100685.00;5045317;28;20052;-66
2023/01/07 02:50:52;;;;;;;22.95;11.48;;;;;;;7.47;57.50;100689.66;5055882;28;20445;-65
2023/01/07 02:53:19;;;;;;;26.60;11.20;;;;;;;7.46;58.06;100695.06;5052562;28;20044;-65
2023/01/07 02:55:57;;;;;;;23.77;12.48;;;;;;;7.34;58.66;100702.09;5055913;28;20025;-65
2023/01/07 02:58:31;;;;;;;20.48;10.13;;;;;;;7.14;59.25;100694.84;5055087;28;20064;-66
2023/01/07 03:01:12;;;;;;;22.80;10.25;;;;;;;6.87;59.99;100688.09;5053714;28;20044;-65
2023/01/07 03:03:56;;;;;;;149.25;52.95;;;;;;;6.85;61.30;100692.63;5054471;28;20041;-65
2023/01/07 03:06:54;;;;;;;86.57;41.35;;;;;;;7.05;60.67;100697.22;5053868;28;20101;-64
2023/01/07 03:09:25;;;;;;;62.10;27.48;;;;;;;7.12;60.64;100691.50;5054145;28;20059;-65
2023/01/07 03:12:04;;;;;;;25.73;10.98;;;;;;;6.99;61.14;100696.84;5052777;28;20118;-65
2023/01/07 03:14:45;;;;;;;33.22;14.73;;;;;;;7.15;61.04;100704.44;5054411;28;20036;-65
2023/01/07 03:17:18;;;;;;;9.55;6.38;;;;;;;6.73;60.16;100707.56;5054182;28;20028;-65
2023/01/07 03:19:49;;;;;;;7.43;4.70;;;;;;;5.90;62.78;100692.59;5052031;28;20029;-65
2023/01/07 03:22:18;;;;;;;12.27;7.30;;;;;;;4.98;66.49;100690.19;5053028;28;20277;-64
2023/01/07 03:24:47;;;;;;;10.25;6.90;;;;;;;5.44;64.10;100688.75;5054271;28;20036;-64
2023/01/07 03:27:15;;;;;;;14.95;8.93;;;;;;;5.78;64.11;100691.66;5053973;28;20043;-64
2023/01/07 03:29:41;;;;;;;14.35;8.75;;;;;;;6.00;62.48;100691.84;5052088;28;20057;-65
2023/01/07 03:32:22;;;;;;;7.65;5.25;;;;;;;5.97;62.43;100696.47;5054465;28;20052;-65
2023/01/07 03:34:48;;;;;;;7.70;6.00;;;;;;;5.32;64.53;100705.38;5053770;28;20044;-64
2023/01/07 03:37:22;;;;;;;9.50;5.63;;;;;;;5.17;64.74;100705.53;5052865;28;20045;-65
2023/01/07 03:39:48;;;;;;;12.35;7.78;;;;;;;5.51;63.83;100696.22;5054015;28;20074;-65
2023/01/07 03:45:04;;;;;;;12.65;9.40;;;;;;;5.19;63.78;100707.13;5053105;28;20144;-65
2023/01/07 03:47:29;;;;;;;12.25;8.07;;;;;;;5.38;63.90;100704.94;5053701;28;20111;-64
2023/01/07 03:49:55;;;;;;;12.00;7.93;;;;;;;5.75;63.23;100707.66;5054020;28;20331;-65
2023/01/07 03:52:20;;;;;;;12.68;8.15;;;;;;;6.05;61.90;100704.66;5052687;28;20068;-64
2023/01/07 03:54:46;;;;;;;13.52;10.40;;;;;;;6.28;61.31;100698.63;5053442;28;20031;-65
2023/01/07 03:57:11;;;;;;;15.38;8.18;;;;;;;6.33;60.84;100701.75;5053738;28;20079;-65
2023/01/07 03:59:37;;;;;;;14.45;8.02;;;;;;;6.26;59.97;100697.88;5055097;28;20041;-66
2023/01/07 04:02:02;;;;;;;12.25;8.35;;;;;;;6.38;58.97;100698.78;5054337;28;20037;-64
2023/01/07 04:04:27;;;;;;;10.73;7.85;;;;;;;6.24;59.24;100706.81;5052680;28;20031;-63
2023/01/07 04:06:53;;;;;;;17.35;9.68;;;;;;;5.90;60.51;100701.34;5051876;28;20029;-65
2023/01/07 04:09:20;;;;;;;19.58;10.88;;;;;;;5.73;61.60;100706.91;5053209;28;20032;-64
2023/01/07 04:11:46;;;;;;;17.90;9.25;;;;;;;5.76;62.07;100710.16;5053061;28;20037;-65
2023/01/07 04:14:11;;;;;;;11.25;7.22;;;;;;;6.03;62.20;100711.81;5053386;28;20067;-65
2023/01/07 04:16:37;;;;;;;11.85;6.47;;;;;;;6.13;61.84;100714.63;5052279;28;20051;-65
2023/01/07 04:19:03;;;;;;;11.32;6.13;;;;;;;6.17;61.97;100711.66;5053593;28;20199;-65
2023/01/07 04:21:28;;;;;;;12.38;7.35;;;;;;;6.17;61.30;100709.03;5052619;28;20234;-65
2023/01/07 04:23:53;;;;;;;7.30;4.32;;;;;;;6.10;61.08;100713.06;5053672;28;20041;-64
2023/01/07 04:26:19;;;;;;;7.53;4.72;;;;;;;6.00;62.05;100722.56;5052568;28;20041;-64
2023/01/07 04:28:44;;;;;;;8.30;4.68;;;;;;;5.73;62.43;100726.16;5052143;28;20330;-65
2023/01/07 04:31:10;;;;;;;7.63;4.45;;;;;;;5.58;63.50;100726.38;5053271;28;20330;-65
2023/01/07 04:33:35;;;;;;;7.35;4.80;;;;;;;5.64;63.42;100728.56;5051846;28;20036;-65
2023/01/07 04:36:01;;;;;;;6.18;3.85;;;;;;;5.78;62.71;100737.19;5053594;28;20441;-65
2023/01/07 04:38:27;;;;;;;7.05;4.53;;;;;;;5.78;62.21;100717.94;5054089;28;20297;-65
2023/01/07 04:40:52;;;;;;;7.78;4.88;;;;;;;6.03;61.51;100740.75;5052911;28;20033;-64
2023/01/07 04:43:17;;;;;;;11.32;6.13;;;;;;;6.08;61.19;100746.50;5051921;28;20021;-65
2023/01/07 04:45:43;;;;;;;14.38;8.13;;;;;;;5.94;62.53;100736.97;5052584;28;20053;-65
2023/01/07 04:48:08;;;;;;;17.00;7.70;;;;;;;6.17;61.64;100731.88;5051923;28;20029;-64
2023/01/07 04:50:34;;;;;;;8.55;5.65;;;;;;;6.24;61.61;100738.38;5052798;28;20040;-66
2023/01/07 04:52:59;;;;;;;9.45;6.13;;;;;;;6.30;60.45;100727.44;5052545;28;20036;-66
2023/01/07 04:55:25;;;;;;;8.30;6.00;;;;;;;6.29;59.70;100737.13;5051869;28;20029;-65
2023/01/07 04:57:50;;;;;;;10.70;6.00;;;;;;;6.24;60.21;100733.97;5052527;28;20044;-65
2023/01/07 05:00:15;;;;;;;11.18;6.57;;;;;;;6.09;60.91;100728.00;5053684;28;20075;-64
2023/01/07 05:02:41;;;;;;;11.70;7.13;;;;;;;5.69;62.37;100732.56;5052171;28;20524;-65
2023/01/07 05:05:07;;;;;;;10.18;6.22;;;;;;;5.52;63.55;100738.16;5053633;28;20045;-65
2023/01/07 05:07:32;;;;;;;14.35;7.28;;;;;;;5.54;64.05;100735.41;5052033;28;20204;-64
2023/01/07 05:09:58;;;;;;;9.70;6.20;;;;;;;5.70;62.55;100739.50;5052098;28;20376;-65
2023/01/07 05:12:24;;;;;;;10.38;6.65;;;;;;;5.65;62.43;100738.13;5052420;28;20052;-64
2023/01/07 05:14:49;;;;;;;11.80;7.43;;;;;;;5.43;63.39;100742.25;5050079;28;20029;-65
2023/01/07 05:17:15;;;;;;;10.05;6.72;;;;;;;5.36;64.32;100742.75;5052824;28;20242;-65
2023/01/07 05:19:40;;;;;;;12.52;6.47;;;;;;;5.40;63.90;100746.88;5052318;28;20033;-66
2023/01/07 05:22:06;;;;;;;12.05;7.47;;;;;;;5.48;63.88;100751.59;5050799;28;20116;-64
2023/01/07 05:24:31;;;;;;;23.75;15.90;;;;;;;5.41;64.10;100756.44;5052883;28;20036;-66
2023/01/07 05:26:56;;;;;;;15.02;8.90;;;;;;;5.43;64.06;100759.78;5052041;28;20036;-65
2023/01/07 05:29:22;;;;;;;14.00;8.50;;;;;;;5.54;63.68;100759.91;5052625;28;20035;-64
2023/01/07 05:31:47;;;;;;;19.48;10.82;;;;;;;5.39;64.42;100760.94;5051113;28;20043;-66
2023/01/07 05:34:13;;;;;;;21.52;13.35;;;;;;;5.48;63.66;100748.97;5052576;28;20029;-65
2023/01/07 05:36:38;;;;;;;29.35;15.80;;;;;;;5.79;62.43;100764.31;5052542;28;20158;-64
2023/01/07 05:39:04;;;;;;;25.08;14.93;;;;;;;5.84;61.55;100762.19;5052437;28;20381;-66
2023/01/07 05:41:29;;;;;;;23.52;12.63;;;;;;;5.75;62.51;100760.19;5053137;28;20037;-65
2023/01/07 05:43:55;;;;;;;27.40;16.75;;;;;;;5.68;63.10;100759.78;5052206;28;20215;-65
2023/01/07 05:46:20;;;;;;;23.17;13.60;;;;;;;5.81;62.86;100764.19;5053539;28;20353;-64
2023/01/07 05:48:46;;;;;;;29.55;15.95;;;;;;;5.71;62.69;100764.84;5051422;28;20280;-65
2023/01/07 05:51:11;;;;;;;34.03;18.10;;;;;;;5.76;62.56;100770.59;5051774;28;20047;-65
2023/01/07 05:53:36;;;;;;;37.88;20.27;;;;;;;5.82;62.38;100769.34;5051576;28;20028;-65
2023/01/07 05:56:02;;;;;;;34.90;20.10;;;;;;;5.92;61.88;100767.78;5052332;28;20083;-65
2023/01/07 05:58:28;;;;;;;50.05;27.27;;;;;;;5.96;61.39;100766.63;5055359;28;20108;-64
2023/01/07 06:00:54;;;;;;;56.28;28.25;;;;;;;5.84;61.80;100766.59;5056696;28;20035;-65
2023/01/07 06:03:20;;;;;;;62.67;29.25;;;;;;;5.70;62.87;100781.53;5056067;28;20033;-64
2023/01/07 06:05:46;;;;;;;39.60;22.60;;;;;;;5.56;60.97;100775.56;5056439;28;20353;-65
2023/01/07 06:08:11;;;;;;;44.30;23.27;;;;;;;5.74;60.55;100776.91;5054919;28;20045;-65
2023/01/07 06:10:37;;;;;;;28.95;17.05;;;;;;;5.74;59.63;100772.50;5053583;28;20048;-64
2023/01/07 06:13:03;;;;;;;24.20;13.68;;;;;;;5.82;58.81;100777.22;5053256;28;20029;-65
2023/01/07 06:15:28;;;;;;;20.33;11.50;;;;;;;5.82;57.13;100779.00;5056726;28;20029;-66
2023/01/07 06:17:53;;;;;;;23.02;14.02;;;;;;;5.81;58.59;100782.59;5055822;28;20033;-65
2023/01/07 06:20:19;;;;;;;18.27;10.98;;;;;;;5.62;58.36;100788.28;5055406;28;20033;-64
2023/01/07 06:22:44;;;;;;;18.05;11.40;;;;;;;5.38;60.24;100782.91;5056445;28;20029;-65
2023/01/07 06:25:11;;;;;;;15.60;11.48;;;;;;;5.59;59.51;100791.94;5055166;28;20036;-65
2023/01/07 06:27:37;;;;;;;18.17;11.35;;;;;;;5.76;59.94;100793.41;5055900;28;20226;-65
2023/01/07 06:30:04;;;;;;;25.15;14.05;;;;;;;5.74;60.26;100793.53;5050938;28;20036;-65
2023/01/07 06:32:29;;;;;;;46.33;23.83;;;;;;;5.51;63.02;100793.41;5050537;28;20045;-65
2023/01/07 06:34:55;;;;;;;32.05;15.68;;;;;;;5.25;64.37;100785.50;5044291;28;20036;-65
2023/01/07 06:37:20;;;;;;;59.00;40.10;;;;;;;5.17;65.46;100790.41;5046156;28;20358;-67
2023/01/07 06:39:45;;;;;;;56.28;36.97;;;;;;;5.61;65.14;100787.44;5044717;28;20065;-64
2023/01/07 06:42:11;;;;;;;43.75;21.35;;;;;;;5.88;64.10;100797.00;5044823;28;20034;-64
2023/01/07 06:44:36;;;;;;;23.05;13.07;;;;;;;5.96;64.50;100792.06;5046834;28;20052;-64
2023/01/07 06:47:02;;;;;;;19.83;11.93;;;;;;;5.95;64.59;100799.13;5047588;28;20033;-64
2023/01/07 06:49:27;;;;;;;20.15;16.23;;;;;;;6.08;63.90;100788.59;5043507;28;20117;-64
2023/01/07 06:51:53;;;;;;;19.98;11.52;;;;;;;6.23;63.74;100792.75;5043167;28;20339;-65
2023/01/07 06:54:18;;;;;;;14.27;9.20;;;;;;;6.38;62.67;100786.44;5057616;28;20032;-64
2023/01/07 06:56:43;;;;;;;20.10;11.63;;;;;;;6.56;62.73;100791.31;5055811;28;20041;-65
2023/01/07 06:59:09;;;;;;;116.85;45.42;;;;;;;6.70;61.62;100786.75;5048765;28;20033;-69
2023/01/07 07:01:35;;;;;;;33.42;15.68;;;;;;;6.88;61.31;100792.44;5054696;28;20079;-68
2023/01/07 07:04:00;;;;;;;28.55;12.35;;;;;;;7.02;60.69;100797.53;5043522;28;20320;-65
2023/01/07 07:06:26;;;;;;;27.25;13.23;;;;;;;7.21;61.01;100798.78;5043053;28;20108;-68
2023/01/07 07:08:51;;;;;;;26.50;12.30;;;;;;;7.15;60.78;100791.34;5043040;28;20222;-64
2023/01/07 07:11:17;;;;;;;17.80;10.85;;;;;;;7.19;61.22;100800.72;5044070;28;20335;-66
2023/01/07 07:13:42;;;;;;;14.73;9.02;;;;;;;7.29;61.00;100801.72;5043997;28;20041;-66
2023/01/07 07:16:08;;;;;;;14.80;10.02;;;;;;;7.16;60.32;100799.16;5044188;28;20037;-67
2023/01/07 07:18:33;;;;;;;21.65;11.27;;;;;;;7.11;60.63;100803.91;5046223;28;20032;-67
2023/01/07 07:20:58;;;;;;;17.63;11.02;;;;;;;7.25;60.76;100809.00;5043413;28;20335;-67
2023/01/07 07:23:24;;;;;;;28.42;15.35;;;;;;;7.28;60.62;100806.16;5044982;28;20044;-65
2023/01/07 07:25:50;;;;;;;46.30;19.42;;;;;;;7.36;59.81;100802.94;5051267;28;20183;-65
2023/01/07 07:28:16;;;;;;;31.90;13.00;;;;;;;7.43;59.42;100795.41;5042572;28;20041;-65
2023/01/07 07:30:41;;;;;;;43.00;17.17;;;;;;;7.48;60.03;100798.53;5045191;28;20633;-65
2023/01/07 07:33:07;;;;;;;31.95;14.90;;;;;;;7.34;59.86;100795.16;5046820;28;20267;-65
2023/01/07 07:35:33;;;;;;;20.92;9.48;;;;;;;7.70;59.95;100806.50;5042669;28;20411;-65
2023/01/07 07:37:58;;;;;;;17.42;9.20;;;;;;;7.72;59.35;100806.38;5045096;28;20029;-65
2023/01/07 07:40:24;;;;;;;19.33;8.30;;;;;;;7.68;59.45;100803.13;5043306;28;20029;-66
2023/01/07 07:42:49;;;;;;;9.60;6.18;;;;;;;7.66;59.97;100808.53;5043156;28;20041;-65
2023/01/07 07:45:15;;;;;;;11.48;6.28;;;;;;;7.75;59.49;100809.63;5045236;28;20353;-65
2023/01/07 07:47:41;;;;;;;7.57;5.45;;;;;;;7.89;59.26;100803.28;5044871;28;20384;-66
2023/01/07 07:50:07;;;;;;;9.07;5.40;;;;;;;8.00;58.84;100804.13;5040485;28;20220;-65
2023/01/07 07:52:32;;;;;;;7.53;5.03;;;;;;;8.01;58.78;100816.34;5041870;28;20045;-65
2023/01/07 07:54:57;;;;;;;7.78;5.57;;;;;;;7.99;59.32;100814.78;5041848;28;20068;-66
2023/01/07 07:57:23;;;;;;;8.32;4.88;;;;;;;8.05;59.46;100805.56;5045184;28;20029;-66
2023/01/07 07:59:48;;;;;;;10.68;6.28;;;;;;;8.07;60.34;100804.47;5046450;28;20045;-65
2023/01/07 08:02:14;;;;;;;13.57;7.82;;;;;;;7.94;60.85;100791.41;5046143;28;20032;-65
2023/01/07 08:04:40;;;;;;;13.27;8.20;;;;;;;7.97;60.65;100793.81;5044192;28;20025;-65
2023/01/07 08:07:06;;;;;;;11.27;7.30;;;;;;;7.99;60.93;100807.72;5044352;28;20204;-65
2023/01/07 08:09:31;;;;;;;13.27;8.82;;;;;;;8.03;61.25;100789.84;5036635;28;20241;-66
2023/01/07 08:11:57;;;;;;;12.50;8.52;;;;;;;8.20;61.34;100799.06;5042098;28;20049;-66
2023/01/07 08:14:22;;;;;;;10.88;6.00;;;;;;;8.23;60.90;100796.19;5045114;28;20036;-65
2023/01/07 08:16:48;;;;;;;12.55;7.30;;;;;;;8.17;61.08;100784.31;5045233;28;20051;-65
2023/01/07 08:19:14;;;;;;;9.60;7.07;;;;;;;8.48;60.70;100789.88;5042271;28;20044;-66
2023/01/07 08:21:39;;;;;;;10.25;7.22;;;;;;;8.69;60.33;100785.50;5046332;28;20041;-65
2023/01/07 08:24:05;;;;;;;9.70;6.22;;;;;;;8.90;60.14;100781.09;5044765;28;20333;-66
2023/01/07 08:26:31;;;;;;;9.07;6.88;;;;;;;8.93;59.09;100786.13;5042089;28;20484;-66
2023/01/07 08:28:57;;;;;;;15.50;7.80;;;;;;;8.99;59.48;100778.66;5042358;28;20051;-65
2023/01/07 08:31:23;;;;;;;11.70;7.85;;;;;;;9.22;58.96;100785.50;5041604;28;20386;-65
2023/01/07 08:33:48;;;;;;;11.27;7.75;;;;;;;9.19;59.07;100781.31;5046160;28;20047;-65
2023/01/07 08:36:13;;;;;;;18.35;11.20;;;;;;;9.27;58.92;100784.16;5042432;28;20037;-66
2023/01/07 08:38:39;;;;;;;15.60;11.38;;;;;;;9.32;58.49;100780.28;5043960;28;20183;-66
2023/01/07 08:41:04;;;;;;;11.70;7.32;;;;;;;9.05;59.13;100786.06;5043781;28;20041;-62
2023/01/07 08:43:30;;;;;;;17.98;9.40;;;;;;;9.08;59.27;100775.25;5042703;28;20040;-63
2023/01/07 08:45:56;;;;;;;13.27;8.00;;;;;;;9.39;58.52;100782.31;5045674;28;20057;-63
2023/01/07 08:48:21;;;;;;;16.23;7.13;;;;;;;9.55;58.85;100780.06;5044862;28;20041;-64
2023/01/07 08:50:51;;;;;;;12.23;8.00;;;;;;;9.67;58.54;100774.69;5043748;28;20041;-63
2023/01/07 08:53:21;;;;;;;14.80;7.30;;;;;;;9.79;58.55;100773.66;5043336;28;20083;-63
2023/01/07 08:55:47;;;;;;;11.38;5.97;;;;;;;9.82;58.49;100762.81;5041729;28;20037;-64
2023/01/07 08:58:13;;;;;;;10.93;5.70;;;;;;;9.99;58.41;100769.28;5047771;28;20064;-63
2023/01/07 09:00:39;;;;;;;12.77;6.57;;;;;;;10.21;57.78;100762.00;5051466;28;20449;-66
2023/01/07 09:03:05;;;;;;;13.57;7.25;;;;;;;10.30;57.57;100754.22;5058004;28;20047;-65
2023/01/07 09:05:30;;;;;;;8.65;5.93;;;;;;;10.33;57.17;100749.50;5057671;28;20056;-66
2023/01/07 09:07:56;;;;;;;12.65;7.07;;;;;;;10.40;56.76;100744.50;5057260;28;20043;-67
2023/01/07 09:10:22;;;;;;;14.68;6.80;;;;;;;10.44;57.28;100749.41;5057805;28;20094;-66
2023/01/07 09:12:48;;;;;;;11.57;5.80;;;;;;;10.41;58.06;100741.75;5057200;28;20045;-66
2023/01/07 09:15:13;;;;;;;10.23;5.32;;;;;;;10.21;58.92;100745.28;5057789;28;20044;-68
2023/01/07 09:17:39;;;;;;;10.25;6.03;;;;;;;10.19;58.17;100733.97;5058248;28;20267;-65
2023/01/07 09:20:06;;;;;;;11.07;6.03;;;;;;;10.35;58.23;100729.00;5056906;28;20040;-66
2023/01/07 09:22:33;;;;;;;11.68;6.30;;;;;;;10.28;58.98;100725.25;5057586;28;20028;-65
2023/01/07 09:24:59;;;;;;;8.65;4.35;;;;;;;10.26;59.15;100723.69;5057496;28;20079;-66
2023/01/07 09:27:25;;;;;;;11.65;6.18;;;;;;;10.18;58.94;100721.69;5057373;28;20048;-65
2023/01/07 09:29:57;;;;;;;9.55;4.85;;;;;;;10.35;59.55;100715.78;5057662;28;20040;-66
2023/01/07 09:32:23;;;;;;;9.57;5.22;;;;;;;10.26;59.27;100710.47;5053901;28;20042;-67
2023/01/07 09:34:48;;;;;;;10.48;4.95;;;;;;;10.16;59.49;100703.31;5042196;28;20036;-66
2023/01/07 09:37:14;;;;;;;8.90;4.35;;;;;;;10.07;60.39;100703.28;5039651;28;20047;-66
2023/01/07 09:39:39;;;;;;;9.63;5.55;;;;;;;10.23;59.40;100691.25;5038764;28;20040;-65
2023/01/07 09:42:42;;;;;;;8.68;4.78;;;;;;;10.26;59.23;100689.28;5051765;28;20040;-65
2023/01/07 09:45:15;;;;;;;8.43;4.60;;;;;;;10.37;60.26;100684.72;5056966;28;20072;-67
2023/01/07 09:47:47;;;;;;;9.52;4.80;;;;;;;10.42;59.93;100685.16;5048852;28;20079;-66
2023/01/07 09:50:30;;;;;;;7.50;5.20;;;;;;;10.55;59.47;100676.94;5057823;28;20063;-66
2023/01/07 09:53:02;;;;;;;6.88;4.65;;;;;;;10.63;59.11;100669.16;5057371;28;20052;-67
2023/01/07 09:55:33;;;;;;;7.00;4.50;;;;;;;10.76;58.63;100669.69;5057594;28;20071;-66
2023/01/07 09:57:59;;;;;;;6.18;3.22;;;;;;;10.70;58.21;100664.13;5056861;28;20041;-66
2023/01/07 10:00:24;;;;;;;5.38;3.22;;;;;;;10.80;58.00;100649.88;5056072;28;20354;-66
2023/01/07 10:03:28;;;;;;;4.82;2.50;;;;;;;10.82;58.13;100650.59;5056274;28;20045;-66
2023/01/07 10:06:21;;;;;;;5.90;3.28;;;;;;;10.96;57.28;100648.47;5052510;28;20331;-66
2023/01/07 10:09:06;;;;;;;6.32;4.03;;;;;;;11.04;57.53;100644.13;5046676;28;20106;-66
2023/01/07 10:11:38;;;;;;;4.00;3.20;;;;;;;11.08;56.60;100637.56;5055346;28;20045;-66
2023/01/07 10:14:26;;;;;;;6.00;3.13;;;;;;;11.08;56.53;100642.84;5055691;28;20123;-66
2023/01/07 10:17:15;;;;;;;6.03;3.42;;;;;;;11.03;56.48;100628.38;5054206;28;20053;-66
2023/01/07 10:19:58;;;;;;;5.13;3.20;;;;;;;11.16;56.86;100627.06;5055448;28;20029;-66
2023/01/07 10:22:29;;;;;;;4.17;3.03;;;;;;;11.23;56.29;100624.69;5054948;28;20045;-66
2023/01/07 10:25:22;;;;;;;8.98;4.18;;;;;;;11.27;57.24;100625.22;5057236;28;20051;-66
2023/01/07 10:27:50;;;;;;;6.70;3.53;;;;;;;11.44;56.18;100617.38;5056566;28;20103;-66
2023/01/07 10:30:23;;;;;;;62.10;27.58;;;;;;;11.46;55.76;100599.50;5056275;28;20044;-67
2023/01/07 10:32:57;;;;;;;255.63;111.95;;;;;;;11.52;55.54;100606.03;5057535;28;20041;-66
2023/01/07 10:35:26;;;;;;;259.80;111.60;;;;;;;11.65;55.66;100605.69;5056436;28;20024;-66
2023/01/07 10:37:57;;;;;;;17.83;9.60;;;;;;;11.60;55.73;100595.50;5057021;28;20056;-68
2023/01/07 10:40:25;;;;;;;13.90;7.95;;;;;;;11.60;55.71;100599.97;5057349;28;20040;-66
2023/01/07 10:43:37;;;;;;;15.63;8.60;;;;;;;11.65;55.98;100587.13;5058091;28;20045;-66
2023/01/07 10:46:39;;;;;;;64.05;32.70;;;;;;;11.71;56.48;100584.69;5056543;28;20056;-66
2023/01/07 10:49:27;;;;;;;7.55;4.63;;;;;;;11.67;55.53;100578.03;5052424;28;20251;-66
2023/01/07 10:52:01;;;;;;;20.63;9.80;;;;;;;11.73;56.90;100571.28;5060619;28;20052;-66
2023/01/07 10:54:35;;;;;;;8.00;4.45;;;;;;;11.77;56.54;100567.34;5060780;28;20064;-67
2023/01/07 10:57:23;;;;;;;5.15;3.00;;;;;;;11.70;56.32;100558.31;5060874;28;20073;-66
2023/01/07 10:59:55;;;;;;;6.55;3.00;;;;;;;11.77;56.39;100562.91;5056571;28;20031;-66
2023/01/07 11:02:26;;;;;;;3.42;2.40;;;;;;;11.79;56.26;100547.66;5060547;28;20218;-66
2023/01/07 11:04:53;;;;;;;3.08;2.78;;;;;;;11.85;56.34;100548.88;5060326;28;20491;-66
2023/01/07 11:07:42;;;;;;;4.22;2.55;;;;;;;11.68;56.75;100528.44;5060620;28;20044;-65
2023/01/07 11:10:31;;;;;;;9.40;4.55;;;;;;;11.86;56.52;100528.50;5050903;28;20025;-66
2023/01/07 11:13:01;;;;;;;5.55;4.20;;;;;;;11.80;57.15;100532.59;5060159;28;20411;-66
2023/01/07 11:15:33;;;;;;;6.00;3.47;;;;;;;11.87;56.49;100523.03;5059523;28;20094;-66
2023/01/07 11:18:02;;;;;;;3.08;2.58;;;;;;;11.82;56.54;100523.50;5059820;28;20116;-66
2023/01/07 11:20:44;;;;;;;3.83;2.33;;;;;;;11.83;56.81;100525.16;5054353;28;20029;-67
2023/01/07 11:23:18;;;;;;;4.88;2.42;;;;;;;11.74;56.77;100522.53;5042649;28;20051;-67
2023/01/07 11:25:43;;;;;;;5.38;2.85;;;;;;;11.84;56.37;100512.72;5042302;28;20040;-65
2023/01/07 11:28:19;;;;;;;6.05;3.60;;;;;;;11.91;56.22;100511.13;5050729;28;20033;-67
2023/01/07 11:30:55;;;;;;;3.70;2.60;;;;;;;11.87;56.47;100503.63;5042959;28;20076;-66
2023/01/07 11:33:34;;;;;;;3.85;2.83;;;;;;;11.87;56.71;100496.50;5045063;28;20037;-66
2023/01/07 11:35:59;;;;;;;5.78;3.30;;;;;;;11.79;57.09;100499.91;5044990;28;20132;-66